Time;durP1;ratioP1;P1;durP2;ratioP2;P2;SDS_P1;SDS_P2;PMS_P1;PMS_P2;Temp;Humidity;BMP_temperature;BMP_pressure;BME280_temperature;BME280_humidity;BME280_pressure;Samples;Min_cycle;Max_cycle;Signal;HPM_P1;HPM_P2
2021/06/29 00:02:05;;;;;;;2.50;2.13;;;;;;;28.02;44.44;100045.13;4995231;28;20445;-45
2021/06/29 00:04:32;;;;;;;10.35;2.38;;;;;;;28.01;44.18;100048.00;4995615;28;20040;-45
2021/06/29 00:06:59;;;;;;;6.15;2.85;;;;;;;28.00;44.67;100052.53;4995566;28;20386;-45
2021/06/29 00:09:26;;;;;;;5.15;2.20;;;;;;;27.98;44.44;100053.75;4995941;28;20038;-45
2021/06/29 00:11:53;;;;;;;6.68;2.65;;;;;;;27.97;44.45;100052.94;4995219;28;20062;-44
2021/06/29 00:14:19;;;;;;;4.10;2.20;;;;;;;27.94;44.47;100056.81;4995759;28;20046;-45
2021/06/29 00:16:51;;;;;;;3.97;2.50;;;;;;;27.92;44.75;100055.38;4994244;28;20130;-45
2021/06/29 00:19:19;;;;;;;6.75;2.72;;;;;;;27.90;44.96;100062.75;4995227;28;20050;-45
2021/06/29 00:21:48;;;;;;;11.68;2.60;;;;;;;27.89;44.87;100061.09;4994895;28;20042;-45
2021/06/29 00:24:15;;;;;;;9.93;3.03;;;;;;;27.89;45.07;100066.44;4995173;28;20049;-44
2021/06/29 00:26:43;;;;;;;5.88;2.75;;;;;;;27.90;44.86;100068.94;4994979;28;20061;-45
2021/06/29 00:29:10;;;;;;;11.30;3.03;;;;;;;27.89;44.83;100064.59;4995504;28;20050;-44
2021/06/29 00:31:37;;;;;;;7.30;3.15;;;;;;;27.89;45.21;100061.91;4994819;28;20125;-45
2021/06/29 00:34:04;;;;;;;10.80;3.03;;;;;;;27.89;45.15;100066.44;4994909;28;20493;-45
2021/06/29 00:36:31;;;;;;;7.88;2.83;;;;;;;27.86;44.95;100072.22;4994934;28;20081;-45
2021/06/29 00:38:58;;;;;;;5.13;3.85;;;;;;;27.86;44.95;100067.69;4994792;28;20539;-45
2021/06/29 00:41:25;;;;;;;6.07;3.15;;;;;;;27.88;45.11;100064.81;4994695;28;20061;-45
2021/06/29 00:43:53;;;;;;;6.20;2.70;;;;;;;27.87;45.16;100068.50;4994785;28;20038;-45
2021/06/29 00:46:20;;;;;;;6.55;2.75;;;;;;;27.85;45.34;100068.69;4994815;28;20049;-45
2021/06/29 00:48:48;;;;;;;5.32;3.25;;;;;;;27.84;45.15;100068.88;4994390;28;20049;-45
2021/06/29 00:51:15;;;;;;;3.47;2.78;;;;;;;27.82;45.13;100070.94;4994748;28;20042;-45
2021/06/29 00:53:43;;;;;;;3.13;2.50;;;;;;;27.81;44.95;100077.31;4994372;28;20042;-45
2021/06/29 00:56:14;;;;;;;6.10;2.70;;;;;;;27.80;45.41;100078.31;4994815;28;20390;-45
2021/06/29 00:58:48;;;;;;;8.68;3.75;;;;;;;27.77;45.11;100078.72;4994198;28;20039;-45
2021/06/29 01:01:15;;;;;;;4.88;2.63;;;;;;;27.76;45.53;100082.44;4994639;28;20054;-45
2021/06/29 01:03:42;;;;;;;4.40;2.60;;;;;;;27.76;45.12;100077.91;4994406;28;20138;-44
2021/06/29 01:06:11;;;;;;;5.32;2.50;;;;;;;27.75;45.51;100078.06;4994436;28;20042;-45
2021/06/29 01:08:39;;;;;;;3.67;2.95;;;;;;;27.72;45.25;100073.94;4994415;28;20042;-45
2021/06/29 01:11:07;;;;;;;6.25;2.95;;;;;;;27.74;45.62;100079.09;4994180;28;20049;-45
2021/06/29 01:13:43;;;;;;;6.15;2.58;;;;;;;27.73;45.51;100072.09;4994338;28;20046;-45
2021/06/29 01:16:10;;;;;;;4.32;2.75;;;;;;;27.67;45.14;100066.44;4994290;28;20058;-44
2021/06/29 01:18:40;;;;;;;9.15;2.80;;;;;;;27.69;45.38;100067.06;4993198;28;20043;-45
2021/06/29 01:21:13;;;;;;;3.05;2.60;;;;;;;27.66;45.05;100059.44;4993597;28;20573;-45
2021/06/29 01:23:41;;;;;;;5.00;3.17;;;;;;;27.66;45.31;100055.94;4994159;28;20042;-45
2021/06/29 01:26:18;;;;;;;8.05;2.92;;;;;;;27.66;45.01;100054.06;4994085;28;20047;-44
2021/06/29 01:29:07;;;;;;;5.68;2.55;;;;;;;27.65;45.01;100048.94;4994037;28;20133;-45
2021/06/29 01:31:35;;;;;;;3.70;2.60;;;;;;;27.64;45.04;100058.78;4993936;28;20050;-45
2021/06/29 01:34:04;;;;;;;5.95;2.60;;;;;;;27.62;45.20;100060.84;4994076;28;20084;-45
2021/06/29 01:36:36;;;;;;;5.20;2.90;;;;;;;27.61;45.27;100059.19;4994012;28;20042;-45
2021/06/29 01:39:10;;;;;;;5.53;2.70;;;;;;;27.59;44.96;100058.56;4994029;28;20055;-45
2021/06/29 01:41:36;;;;;;;7.75;2.50;;;;;;;27.58;44.98;100053.38;4993650;28;20383;-45
2021/06/29 01:44:10;;;;;;;6.65;2.53;;;;;;;27.60;45.08;100056.69;4994012;28;20053;-45
2021/06/29 01:46:40;;;;;;;4.35;3.20;;;;;;;27.59;45.30;100049.66;4994039;28;20120;-44
2021/06/29 01:49:07;;;;;;;2.83;2.45;;;;;;;27.60;45.29;100046.81;4993676;28;20121;-45
2021/06/29 01:51:34;;;;;;;10.40;3.08;;;;;;;27.59;45.12;100049.66;4993665;28;20042;-45
2021/06/29 01:54:01;;;;;;;8.07;3.00;;;;;;;27.58;45.26;100054.19;4993693;28;20046;-45
2021/06/29 01:56:30;;;;;;;5.90;2.38;;;;;;;27.59;45.05;100052.34;4993656;28;20401;-45
2021/06/29 01:59:01;;;;;;;7.88;2.90;;;;;;;27.58;45.36;100066.75;4993314;28;20049;-45
2021/06/29 02:01:28;;;;;;;3.00;2.45;;;;;;;27.57;45.30;100065.94;4993563;28;20493;-45
2021/06/29 02:03:55;;;;;;;10.88;2.72;;;;;;;27.57;45.16;100070.47;4993602;28;20038;-45
2021/06/29 02:06:21;;;;;;;4.18;2.83;;;;;;;27.57;45.11;100081.16;4993499;28;20042;-45
2021/06/29 02:08:48;;;;;;;10.65;2.90;;;;;;;27.54;45.33;100077.03;4993339;28;20046;-45
2021/06/29 02:11:15;;;;;;;7.68;2.50;;;;;;;27.55;45.20;100080.53;4993758;28;20092;-45
2021/06/29 02:13:42;;;;;;;2.53;2.22;;;;;;;27.55;45.17;100078.69;4993148;28;20047;-45
2021/06/29 02:16:09;;;;;;;4.97;2.63;;;;;;;27.56;45.16;100085.69;4993807;28;20062;-44
2021/06/29 02:18:36;;;;;;;6.03;3.03;;;;;;;27.55;45.01;100080.53;4993733;28;20038;-44
2021/06/29 02:21:05;;;;;;;6.50;2.65;;;;;;;27.54;45.42;100085.06;4993018;28;20050;-45
2021/06/29 02:23:32;;;;;;;7.10;2.70;;;;;;;27.55;45.28;100078.69;4993263;28;20405;-44
2021/06/29 02:26:00;;;;;;;4.93;3.15;;;;;;;27.55;45.33;100076.00;4993052;28;20049;-45
2021/06/29 02:28:27;;;;;;;4.10;2.65;;;;;;;27.58;45.13;100074.78;4993387;28;20489;-45
2021/06/29 02:30:54;;;;;;;6.22;2.95;;;;;;;27.56;45.31;100071.50;4993056;28;20053;-45
2021/06/29 02:33:21;;;;;;;6.20;2.40;;;;;;;27.56;44.91;100066.97;4993569;28;20114;-44
2021/06/29 02:35:48;;;;;;;4.68;3.10;;;;;;;27.56;44.98;100060.78;4992793;28;20490;-44
2021/06/29 02:38:14;;;;;;;3.55;2.78;;;;;;;27.56;44.97;100066.97;4993327;28;20087;-45
2021/06/29 02:40:41;;;;;;;4.63;2.55;;;;;;;27.53;45.22;100067.31;4993854;28;20129;-45
2021/06/29 02:43:08;;;;;;;4.15;2.70;;;;;;;27.51;45.30;100064.03;4997381;28;20137;-45
2021/06/29 02:45:35;;;;;;;5.07;2.90;;;;;;;27.50;45.14;100067.72;4997269;28;20050;-45
2021/06/29 02:48:02;;;;;;;5.15;2.80;;;;;;;27.46;45.51;100058.41;4996606;28;20049;-44
2021/06/29 02:50:29;;;;;;;5.30;2.65;;;;;;;27.47;45.27;100053.88;4997035;28;20042;-45
2021/06/29 02:52:56;;;;;;;9.90;2.97;;;;;;;27.46;45.61;100050.38;4996726;28;20058;-45
2021/06/29 02:55:23;;;;;;;15.90;3.13;;;;;;;27.46;45.63;100055.72;4996848;28;20065;-44
2021/06/29 02:57:50;;;;;;;9.63;2.80;;;;;;;27.44;45.35;100048.94;4996549;28;20070;-45
2021/06/29 03:00:19;;;;;;;5.82;2.70;;;;;;;27.45;45.88;100051.41;4996362;28;20046;-45
2021/06/29 03:02:46;;;;;;;4.20;2.45;;;;;;;27.48;45.49;100044.81;4996555;28;20046;-44
2021/06/29 03:05:15;;;;;;;4.85;3.25;;;;;;;27.50;45.57;100048.16;4996659;28;20574;-45
2021/06/29 03:07:43;;;;;;;4.47;3.20;;;;;;;27.48;45.49;100042.97;4996663;28;20397;-45
2021/06/29 03:10:11;;;;;;;4.45;2.90;;;;;;;27.49;45.42;100038.47;4996811;28;20129;-45
2021/06/29 03:12:38;;;;;;;6.38;3.17;;;;;;;27.45;45.89;100046.06;4996548;28;20043;-44
2021/06/29 03:15:06;;;;;;;7.40;2.50;;;;;;;27.41;45.81;100037.56;4996488;28;20042;-45
2021/06/29 03:17:34;;;;;;;4.40;3.33;;;;;;;27.38;45.58;100034.47;4996427;28;20130;-44
2021/06/29 03:20:03;;;;;;;4.93;3.08;;;;;;;27.43;45.59;100037.38;4996447;28;20042;-45
2021/06/29 03:22:30;;;;;;;11.90;4.00;;;;;;;27.44;45.35;100031.03;4996730;28;20409;-45
2021/06/29 03:24:56;;;;;;;2.85;2.65;;;;;;;27.44;45.67;100031.03;4996013;28;20047;-45
2021/06/29 03:27:23;;;;;;;3.97;2.65;;;;;;;27.44;45.55;100036.38;4996174;28;20038;-45
2021/06/29 03:29:50;;;;;;;7.90;3.00;;;;;;;27.42;45.67;100043.75;4996322;28;20046;-45
2021/06/29 03:32:17;;;;;;;6.93;3.33;;;;;;;27.40;45.72;100043.13;4996268;28;20064;-45
2021/06/29 03:34:47;;;;;;;4.40;3.58;;;;;;;27.38;45.59;100040.63;4995685;28;20050;-44
2021/06/29 03:37:14;;;;;;;21.63;4.25;;;;;;;27.37;45.59;100041.63;4996160;28;20092;-45
2021/06/29 03:39:41;;;;;;;4.40;3.63;;;;;;;27.34;45.82;100043.88;4995894;28;20047;-45
2021/06/29 03:42:08;;;;;;;10.70;3.20;;;;;;;27.36;45.98;100044.50;4995949;28;20490;-45
2021/06/29 03:44:35;;;;;;;7.03;3.42;;;;;;;27.35;45.83;100043.69;4995989;28;20042;-45
2021/06/29 03:47:02;;;;;;;6.75;3.08;;;;;;;27.36;45.80;100039.16;4995999;28;20038;-45
2021/06/29 03:49:30;;;;;;;7.05;3.40;;;;;;;27.34;45.67;100031.31;4994355;28;20050;-45
2021/06/29 03:51:57;;;;;;;8.20;3.30;;;;;;;27.36;46.11;100036.47;4994530;28;20042;-45
2021/06/29 03:54:24;;;;;;;5.28;2.95;;;;;;;27.36;45.93;100028.44;4995539;28;20125;-44
2021/06/29 03:56:51;;;;;;;5.53;3.05;;;;;;;27.35;46.16;100026.81;4995818;28;20039;-45
2021/06/29 03:59:18;;;;;;;7.88;3.55;;;;;;;27.38;45.84;100024.59;4995629;28;20497;-45
2021/06/29 04:01:46;;;;;;;5.57;3.03;;;;;;;27.35;45.57;100019.59;4995685;28;20038;-44
2021/06/29 04:04:13;;;;;;;5.35;2.80;;;;;;;27.32;45.26;100024.50;4994608;28;20052;-44
2021/06/29 04:06:40;;;;;;;7.55;3.20;;;;;;;27.36;44.94;100023.09;4995699;28;20069;-45
2021/06/29 04:09:08;;;;;;;4.93;3.10;;;;;;;27.38;44.86;100037.97;4995829;28;20052;-44
2021/06/29 04:11:35;;;;;;;4.80;2.80;;;;;;;27.36;44.35;100037.31;4995542;28;20042;-45
2021/06/29 04:14:03;;;;;;;5.40;3.38;;;;;;;27.27;45.09;100040.28;4995404;28;20468;-45
2021/06/29 04:16:30;;;;;;;5.75;3.47;;;;;;;27.22;45.53;100042.72;4995403;28;20050;-45
2021/06/29 04:18:57;;;;;;;7.47;3.35;;;;;;;27.21;45.71;100041.06;4993898;28;20042;-45
2021/06/29 04:21:24;;;;;;;4.43;3.55;;;;;;;27.24;45.63;100032.66;4995549;28;20046;-44
2021/06/29 04:23:51;;;;;;;8.95;3.90;;;;;;;27.27;45.79;100040.28;4994922;28;20078;-45
2021/06/29 04:26:18;;;;;;;9.27;3.58;;;;;;;27.30;45.77;100047.94;4995586;28;20046;-45
2021/06/29 04:28:46;;;;;;;6.85;3.50;;;;;;;27.30;45.73;100042.59;4993700;28;20049;-45
2021/06/29 04:31:14;;;;;;;8.50;3.15;;;;;;;27.31;45.38;100053.09;4995433;28;20052;-45
2021/06/29 04:33:41;;;;;;;11.90;2.95;;;;;;;27.30;45.64;100050.63;4994841;28;20046;-44
2021/06/29 04:36:07;;;;;;;6.30;3.35;;;;;;;27.36;45.57;100045.34;4995319;28;20052;-44
2021/06/29 04:38:34;;;;;;;8.88;4.00;;;;;;;27.37;45.75;100048.84;4994788;28;20050;-44
2021/06/29 04:41:02;;;;;;;6.75;3.17;;;;;;;27.40;45.64;100045.78;4994841;28;20043;-44
2021/06/29 04:43:30;;;;;;;9.60;3.22;;;;;;;27.41;45.25;100050.13;4994666;28;20053;-45
2021/06/29 04:45:57;;;;;;;5.85;3.03;;;;;;;27.41;44.91;100042.09;4994588;28;20039;-45
2021/06/29 04:48:25;;;;;;;9.13;2.53;;;;;;;27.40;44.65;100041.25;4994862;28;20046;-45
2021/06/29 04:50:51;;;;;;;11.52;3.85;;;;;;;27.32;44.65;100040.56;4994540;28;20053;-45
2021/06/29 04:53:18;;;;;;;8.18;3.35;;;;;;;27.35;45.39;100043.69;4994893;28;20133;-45
2021/06/29 04:55:45;;;;;;;7.38;3.58;;;;;;;27.30;45.12;100043.44;4994379;28;20041;-45
2021/06/29 04:58:12;;;;;;;12.50;3.60;;;;;;;27.32;45.42;100045.91;4994736;28;20413;-45
2021/06/29 05:00:45;;;;;;;8.43;3.50;;;;;;;27.34;45.44;100042.03;4994077;28;20042;-45
2021/06/29 05:03:13;;;;;;;7.30;2.97;;;;;;;27.37;45.04;100046.16;4994370;28;20395;-45
2021/06/29 05:05:40;;;;;;;16.15;4.38;;;;;;;27.37;44.93;100051.50;4994600;28;20125;-45
2021/06/29 05:08:07;;;;;;;16.55;3.42;;;;;;;27.37;44.79;100041.63;4994724;28;20042;-44
2021/06/29 05:10:34;;;;;;;7.60;3.58;;;;;;;27.39;43.99;100044.97;4994516;28;20046;-45
2021/06/29 05:13:02;;;;;;;9.23;3.22;;;;;;;27.39;43.72;100049.50;4994378;28;20454;-45
2021/06/29 05:15:29;;;;;;;9.88;3.00;;;;;;;27.43;43.47;100050.75;4994452;28;20072;-44
2021/06/29 05:17:57;;;;;;;8.65;3.42;;;;;;;27.45;43.11;100050.59;4994006;28;20122;-44
2021/06/29 05:20:24;;;;;;;12.20;3.88;;;;;;;27.44;42.79;100041.72;4994565;28;20387;-45
2021/06/29 05:22:52;;;;;;;8.65;2.58;;;;;;;27.50;42.48;100045.47;4994068;28;20133;-44
2021/06/29 05:25:19;;;;;;;8.45;3.53;;;;;;;27.51;41.93;100037.25;4994235;28;20081;-45
2021/06/29 05:27:46;;;;;;;14.05;3.80;;;;;;;27.52;42.34;100041.59;4993870;28;20046;-45
2021/06/29 05:30:13;;;;;;;7.95;3.10;;;;;;;27.54;42.31;100046.72;4994086;28;20482;-44
2021/06/29 05:32:41;;;;;;;5.72;2.55;;;;;;;27.55;42.18;100041.22;4993795;28;20560;-45
2021/06/29 05:35:08;;;;;;;9.25;3.65;;;;;;;27.55;42.15;100048.41;4994521;28;20053;-45
2021/06/29 05:37:35;;;;;;;5.80;3.15;;;;;;;27.58;42.19;100039.97;4994148;28;20050;-45
2021/06/29 05:40:03;;;;;;;8.02;2.53;;;;;;;27.57;41.78;100044.50;4993858;28;20056;-45
2021/06/29 05:42:48;;;;;;;8.15;3.45;;;;;;;27.62;41.15;100044.75;4993859;28;20053;-45
2021/06/29 05:45:15;;;;;;;5.30;3.38;;;;;;;27.63;40.78;100038.38;4993759;28;20073;-45
2021/06/29 05:47:43;;;;;;;18.40;2.78;;;;;;;27.66;40.90;100035.34;4993775;28;20050;-44
2021/06/29 05:50:11;;;;;;;11.68;3.35;;;;;;;27.69;40.98;100039.47;4993315;28;20053;-45
2021/06/29 05:52:38;;;;;;;15.50;5.20;;;;;;;27.70;40.91;100035.81;4993655;28;20133;-45
2021/06/29 05:55:07;;;;;;;11.20;3.20;;;;;;;27.72;40.73;100031.09;4993575;28;20097;-45
2021/06/29 05:57:36;;;;;;;18.83;3.63;;;;;;;27.77;40.57;100038.53;4993698;28;20042;-45
2021/06/29 06:00:08;;;;;;;15.07;4.95;;;;;;;27.74;40.95;100047.78;4991995;28;20134;-45
2021/06/29 06:02:40;;;;;;;11.05;2.83;;;;;;;27.78;41.06;100042.88;4993590;28;20069;-45
2021/06/29 06:05:09;;;;;;;15.50;3.75;;;;;;;27.81;40.99;100042.50;4993266;28;20489;-44
2021/06/29 06:07:37;;;;;;;10.57;3.13;;;;;;;27.84;41.18;100045.59;4993748;28;20046;-45
2021/06/29 06:10:05;;;;;;;16.20;3.90;;;;;;;27.85;41.02;100046.44;4992010;28;20048;-44
2021/06/29 06:12:33;;;;;;;10.52;3.35;;;;;;;27.86;41.40;100040.91;4993360;28;20065;-45
2021/06/29 06:15:00;;;;;;;8.50;3.33;;;;;;;27.88;41.15;100032.66;4992793;28;20497;-44
2021/06/29 06:17:27;;;;;;;10.35;4.03;;;;;;;27.90;41.31;100034.09;4993088;28;20501;-44
2021/06/29 06:19:54;;;;;;;10.52;4.20;;;;;;;27.93;40.84;100038.25;4993441;28;20050;-44
2021/06/29 06:22:21;;;;;;;16.17;3.30;;;;;;;27.93;41.02;100043.63;4993126;28;20038;-44
2021/06/29 06:24:48;;;;;;;14.20;3.35;;;;;;;27.95;40.76;100038.88;4993357;28;20057;-44
2021/06/29 06:27:16;;;;;;;7.78;3.05;;;;;;;27.97;40.70;100038.72;4992176;28;20133;-44
2021/06/29 06:29:43;;;;;;;10.57;3.15;;;;;;;27.95;40.28;100028.16;4993317;28;20046;-45
2021/06/29 06:32:09;;;;;;;10.23;2.63;;;;;;;27.97;40.64;100028.00;4992988;28;20047;-45
2021/06/29 06:34:36;;;;;;;11.05;2.83;;;;;;;28.00;41.09;100024.91;4993407;28;20426;-44
2021/06/29 06:37:04;;;;;;;11.98;3.53;;;;;;;27.99;40.74;100024.09;4993400;28;20041;-44
2021/06/29 06:39:31;;;;;;;18.38;3.60;;;;;;;28.02;41.10;100023.72;4992904;28;20564;-44
2021/06/29 06:41:58;;;;;;;5.78;2.75;;;;;;;28.03;41.12;100024.53;4992877;28;20121;-44
2021/06/29 06:44:24;;;;;;;14.18;2.75;;;;;;;28.04;40.98;100026.19;4993044;28;20552;-44
2021/06/29 06:46:51;;;;;;;16.42;2.75;;;;;;;28.04;40.73;100020.81;4993065;28;20046;-44
2021/06/29 06:49:19;;;;;;;14.65;2.90;;;;;;;28.04;40.89;100021.66;4993005;28;20047;-45
2021/06/29 06:51:46;;;;;;;9.73;3.28;;;;;;;28.05;40.99;100017.13;4993403;28;20085;-44
2021/06/29 06:54:12;;;;;;;12.38;2.75;;;;;;;28.03;40.83;100009.28;4983412;28;20129;-44
2021/06/29 06:56:39;;;;;;;12.70;3.42;;;;;;;27.91;41.39;100000.09;4989625;28;20145;-44
2021/06/29 06:59:06;;;;;;;10.55;3.20;;;;;;;27.80;41.65;100014.88;4985543;28;20057;-44
2021/06/29 07:03:51;;;;;;;10.02;3.00;;;;;;;27.64;41.89;100021.28;2947771;22;18705749;-42
2021/06/29 07:06:18;;;;;;;12.00;3.08;;;;;;;27.63;41.67;100027.69;5071563;28;20053;-37
2021/06/29 07:08:45;;;;;;;8.57;2.78;;;;;;;27.81;40.89;100032.63;5078570;28;20485;-38
2021/06/29 07:11:12;;;;;;;11.52;3.03;;;;;;;27.76;40.02;100043.06;5077574;28;20041;-38
2021/06/29 07:13:39;;;;;;;10.07;3.88;;;;;;;27.52;40.30;100046.94;5070883;28;20032;-39
2021/06/29 07:16:06;;;;;;;17.20;3.75;;;;;;;27.35;39.99;100050.88;5068167;28;20051;-37
2021/06/29 07:18:33;;;;;;;11.95;2.80;;;;;;;27.20;40.02;100050.09;5072643;28;20147;-38
2021/06/29 07:21:01;;;;;;;8.85;2.75;;;;;;;27.50;40.00;100048.16;5073159;28;20045;-40
2021/06/29 07:23:27;;;;;;;7.50;2.20;;;;;;;27.44;39.20;100046.25;5073184;28;20120;-39
2021/06/29 07:25:54;;;;;;;8.10;2.17;;;;;;;27.34;38.83;100051.91;5060942;28;20036;-40
2021/06/29 07:28:21;;;;;;;8.10;2.03;;;;;;;27.27;39.02;100053.66;5071405;28;20044;-39
2021/06/29 07:30:48;;;;;;;9.50;2.75;;;;;;;27.19;38.67;100048.44;5067148;28;20041;-39
2021/06/29 07:33:15;;;;;;;5.93;2.08;;;;;;;27.07;38.40;100054.31;5067846;28;20041;-40
2021/06/29 07:35:42;;;;;;;5.05;1.98;;;;;;;27.07;38.36;100054.31;5067306;28;20111;-39
2021/06/29 07:38:09;;;;;;;6.32;1.90;;;;;;;26.96;38.21;100060.09;5070699;28;20463;-40
2021/06/29 07:40:36;;;;;;;4.32;2.17;;;;;;;27.00;37.75;100056.03;5076681;28;20044;-39
2021/06/29 07:43:03;;;;;;;11.10;2.58;;;;;;;26.99;37.42;100057.03;5072572;28;20044;-36
2021/06/29 07:45:31;;;;;;;4.15;1.50;;;;;;;26.92;37.30;100053.47;5070243;28;20037;-36
2021/06/29 07:48:02;;;;;;;6.90;1.70;;;;;;;26.96;37.04;100049.41;5050307;28;20123;-39
2021/06/29 07:50:30;;;;;;;2.40;1.48;;;;;;;27.01;36.58;100052.34;5069783;28;20044;-40
2021/06/29 07:52:59;;;;;;;7.60;1.20;;;;;;;26.97;36.44;100048.38;5072540;28;20047;-39
2021/06/29 07:55:26;;;;;;;2.95;1.40;;;;;;;26.97;36.33;100048.38;5073375;28;20099;-40
2021/06/29 07:57:54;;;;;;;3.17;1.42;;;;;;;26.87;36.49;100051.34;5071369;28;20068;-40
2021/06/29 08:00:21;;;;;;;4.18;1.20;;;;;;;26.91;35.98;100046.47;5073115;28;20372;-40
2021/06/29 08:02:51;;;;;;;4.88;2.05;;;;;;;26.76;36.25;100034.97;5076451;28;20046;-36
2021/06/29 08:05:18;;;;;;;2.67;1.20;;;;;;;26.82;36.35;100037.72;5093228;28;20075;-39
2021/06/29 08:07:45;;;;;;;6.05;1.80;;;;;;;26.82;35.84;100032.34;5096435;28;20072;-38
2021/06/29 08:10:12;;;;;;;3.03;1.40;;;;;;;26.78;35.90;100030.25;5093013;28;20389;-39
2021/06/29 08:12:39;;;;;;;2.88;1.83;;;;;;;26.86;35.92;100022.13;5087509;28;20558;-39
2021/06/29 08:15:07;;;;;;;7.03;1.38;;;;;;;26.86;35.90;100016.78;5075830;28;20037;-40
2021/06/29 08:17:40;;;;;;;5.93;1.27;;;;;;;26.88;35.64;100025.44;5074303;28;20049;-40
2021/06/29 08:20:08;;;;;;;5.13;1.52;;;;;;;26.87;35.51;100013.91;5076787;28;20044;-39
2021/06/29 08:22:34;;;;;;;5.47;1.75;;;;;;;26.90;35.34;100015.41;5059292;28;20051;-38
2021/06/29 08:25:03;;;;;;;2.25;1.13;;;;;;;26.94;35.15;100016.66;5061016;28;20037;-40
2021/06/29 08:27:30;;;;;;;1.10;0.75;;;;;;;26.92;35.16;100013.34;5057181;28;20041;-39
2021/06/29 08:29:58;;;;;;;1.50;0.70;;;;;;;26.96;35.41;100017.31;5058118;28;20491;-40
2021/06/29 08:32:25;;;;;;;2.00;1.02;;;;;;;26.92;35.37;100012.53;5066830;28;20124;-40
2021/06/29 08:34:56;;;;;;;0.70;0.70;;;;;;;26.89;35.06;100005.69;5075201;28;20393;-39
2021/06/29 08:37:23;;;;;;;6.20;1.10;;;;;;;26.89;35.25;100001.16;5085606;28;20035;-40
2021/06/29 08:39:50;;;;;;;1.25;0.75;;;;;;;26.89;35.30;100006.50;5078858;28;20040;-40
2021/06/29 08:42:20;;;;;;;1.30;0.80;;;;;;;26.84;35.16;100003.56;5066139;28;20063;-39
2021/06/29 08:44:47;;;;;;;2.70;0.90;;;;;;;26.88;35.17;100006.72;5061537;28;20120;-40
2021/06/29 08:47:15;;;;;;;1.23;0.88;;;;;;;26.82;34.97;100005.63;5063085;28;20075;-40
2021/06/29 08:49:42;;;;;;;2.30;1.42;;;;;;;26.84;35.12;100002.75;5060797;28;20037;-40
2021/06/29 08:52:10;;;;;;;3.83;1.45;;;;;;;26.87;34.74;100000.53;5066415;28;20385;-40
2021/06/29 08:54:38;;;;;;;3.85;0.90;;;;;;;26.87;34.85;100007.72;5054173;28;20041;-39
2021/06/29 08:57:05;;;;;;;1.10;0.88;;;;;;;26.86;34.80;100006.91;5055108;28;20102;-38
2021/06/29 08:59:32;;;;;;;5.82;1.30;;;;;;;26.80;34.91;100006.84;5059326;28;20040;-40
2021/06/29 09:02:01;;;;;;;4.35;1.05;;;;;;;26.82;34.94;99999.44;5066980;28;20041;-39
2021/06/29 09:04:50;;;;;;;2.13;0.60;;;;;;;26.82;34.74;100005.63;5074747;28;20059;-39
2021/06/29 09:07:22;;;;;;;2.60;1.10;;;;;;;26.81;34.45;100006.63;5048234;28;20065;-39
2021/06/29 09:09:54;;;;;;;2.88;0.68;;;;;;;26.86;34.54;100011.44;5074247;28;20044;-40
2021/06/29 09:12:46;;;;;;;1.13;0.57;;;;;;;26.77;34.65;100013.38;5076819;28;20041;-40
2021/06/29 09:15:30;;;;;;;1.80;0.60;;;;;;;26.79;34.55;100015.84;5074057;28;20041;-39
2021/06/29 09:18:27;;;;;;;0.68;0.60;;;;;;;26.79;34.63;100021.19;5086687;28;20044;-39
2021/06/29 09:21:02;;;;;;;2.45;0.40;;;;;;;26.79;34.61;100023.88;5078360;28;20045;-39
2021/06/29 09:23:34;;;;;;;1.52;1.20;;;;;;;26.78;34.49;100020.38;5072891;28;20059;-39
2021/06/29 09:26:06;;;;;;;1.20;0.73;;;;;;;26.76;34.34;100026.94;5058062;28;20439;-39
2021/06/29 09:28:35;;;;;;;0.50;0.40;;;;;;;26.79;34.40;100029.22;5064269;28;20044;-35
2021/06/29 09:31:11;;;;;;;0.40;0.40;;;;;;;26.80;34.56;100036.25;5092492;28;20465;-39
2021/06/29 09:33:44;;;;;;;0.88;0.52;;;;;;;26.76;34.38;100027.75;5087516;28;20051;-37
2021/06/29 09:36:15;;;;;;;1.33;0.47;;;;;;;26.75;34.30;100023.44;5074001;28;20040;-39
2021/06/29 09:38:44;;;;;;;0.60;0.40;;;;;;;26.75;34.36;100036.81;5074360;28;20373;-36
2021/06/29 09:41:16;;;;;;;0.60;0.60;;;;;;;26.72;34.37;100033.66;5090971;28;20627;-40
2021/06/29 09:43:45;;;;;;;1.10;0.50;;;;;;;26.72;34.30;100033.66;5073511;28;20047;-38
2021/06/29 09:46:14;;;;;;;1.10;0.57;;;;;;;26.74;34.30;100032.47;5056215;28;20036;-39
2021/06/29 09:48:45;;;;;;;2.28;0.40;;;;;;;26.68;34.25;100029.69;5073530;28;20059;-39
2021/06/29 09:51:34;;;;;;;1.45;0.50;;;;;;;26.66;34.41;100029.06;5073515;28;20068;-39
2021/06/29 09:54:07;;;;;;;0.90;0.40;;;;;;;26.68;34.33;100029.69;5064401;28;20040;-39
2021/06/29 09:56:40;;;;;;;0.45;0.38;;;;;;;26.68;34.30;100032.38;5053961;28;20053;-40
2021/06/29 09:59:14;;;;;;;0.55;0.35;;;;;;;26.69;34.03;100023.38;5053069;28;20075;-39
2021/06/29 10:01:41;;;;;;;;;;;;;;;26.66;34.09;100026.41;5070028;28;20455;-40
2021/06/29 10:04:09;;;;;;;0.40;0.32;;;;;;;26.64;34.08;100019.41;5053263;28;19921;-41
2021/06/29 10:06:37;;;;;;;0.57;0.40;;;;;;;26.61;34.37;100014.41;5035779;28;20061;-39
2021/06/29 10:09:16;;;;;;;1.95;0.70;;;;;;;26.67;34.19;100012.00;5055382;28;20044;-39
2021/06/29 10:11:52;;;;;;;2.63;0.43;;;;;;;26.66;34.21;100013.03;5072761;28;20040;-39
2021/06/29 10:14:21;;;;;;;1.42;0.50;;;;;;;26.66;34.00;100007.69;5061643;28;20043;-39
2021/06/29 10:16:50;;;;;;;1.73;0.60;;;;;;;26.63;33.93;100008.88;5053154;28;20041;-39
2021/06/29 10:19:47;;;;;;;0.50;0.50;;;;;;;26.61;34.17;100009.06;5069107;28;20052;-39
2021/06/29 10:22:17;;;;;;;0.82;0.43;;;;;;;26.63;33.95;100006.19;5062204;28;20045;-40
2021/06/29 10:24:44;;;;;;;0.40;0.40;;;;;;;26.61;34.21;100014.41;5053148;28;20051;-39
2021/06/29 10:27:11;;;;;;;0.60;0.50;;;;;;;26.60;34.10;100011.94;5062548;28;20049;-39
2021/06/29 10:29:38;;;;;;;0.50;0.40;;;;;;;26.59;34.25;100005.75;5078881;28;20051;-39
2021/06/29 10:32:11;;;;;;;0.40;0.40;;;;;;;26.61;33.97;100010.91;5083122;28;20079;-39
2021/06/29 10:34:39;;;;;;;2.10;0.90;;;;;;;26.56;34.12;100003.44;5073092;28;20036;-39
2021/06/29 10:37:07;;;;;;;1.77;0.50;;;;;;;26.58;34.03;100006.78;5072276;28;20112;-40
2021/06/29 10:39:36;;;;;;;1.02;0.40;;;;;;;26.58;34.22;100003.25;5073102;28;20044;-39
2021/06/29 10:42:09;;;;;;;0.60;0.43;;;;;;;26.61;34.06;100009.06;5072677;28;20494;-40
2021/06/29 10:44:37;;;;;;;1.15;0.47;;;;;;;26.59;34.07;99997.75;5072745;28;20036;-40
2021/06/29 10:47:30;;;;;;;2.30;0.55;;;;;;;26.61;34.63;99997.53;5072860;28;20131;-40
2021/06/29 10:49:59;;;;;;;6.10;0.63;;;;;;;26.55;35.18;100004.47;5073123;28;20064;-39
2021/06/29 10:52:26;;;;;;;0.82;0.50;;;;;;;26.53;35.19;100006.50;5072592;28;20102;-35
2021/06/29 10:54:55;;;;;;;5.40;1.73;;;;;;;26.58;35.32;100008.59;5072875;28;20432;-41
2021/06/29 10:57:36;;;;;;;2.67;0.80;;;;;;;26.61;35.49;100011.72;5072512;28;20044;-40
2021/06/29 11:00:16;;;;;;;6.38;0.80;;;;;;;26.62;35.30;100010.72;5072498;28;20040;-38
2021/06/29 11:03:07;;;;;;;3.45;0.77;;;;;;;26.54;35.67;100000.13;5072715;28;20048;-39
2021/06/29 11:05:44;;;;;;;0.95;0.63;;;;;;;26.61;35.37;100001.03;5072232;28;20523;-40
2021/06/29 11:08:20;;;;;;;1.25;0.88;;;;;;;26.57;35.38;100001.59;5054353;28;20041;-37
2021/06/29 11:10:49;;;;;;;3.00;0.70;;;;;;;26.55;35.35;99998.28;5071377;28;20040;-42
2021/06/29 11:13:18;;;;;;;4.20;0.98;;;;;;;26.46;35.37;100002.91;5072902;28;20097;-40
2021/06/29 11:15:52;;;;;;;2.25;0.88;;;;;;;26.46;35.25;99994.88;5065976;28;20041;-40
2021/06/29 11:18:40;;;;;;;4.82;2.08;;;;;;;26.54;35.75;99991.28;5084143;28;20044;-39
2021/06/29 11:21:10;;;;;;;1.90;0.93;;;;;;;26.60;35.72;99979.84;5082444;28;20040;-35
2021/06/29 11:23:39;;;;;;;3.97;1.00;;;;;;;26.58;35.67;99984.53;5072507;28;20079;-39
2021/06/29 11:26:12;;;;;;;0.90;0.68;;;;;;;26.50;35.74;99982.81;5072109;28;20095;-39
2021/06/29 11:29:05;;;;;;;2.00;0.63;;;;;;;26.53;35.60;99984.28;5072517;28;20032;-39
2021/06/29 11:31:33;;;;;;;2.17;0.50;;;;;;;26.50;35.58;99982.81;5073094;28;20060;-39
2021/06/29 11:34:07;;;;;;;0.80;0.80;;;;;;;26.51;35.35;99981.78;5074045;28;20044;-39
2021/06/29 11:36:36;;;;;;;1.03;0.60;;;;;;;26.54;35.55;99980.59;5071982;28;20047;-39